Licenciado Benito Juarez International Airport
MMMX : now visible

Airfield :











YOU CAN JOIN US ON...

 
LOGIN :

Register | Disclaimer

   EN    FR    IT 

 









Legend :    VFR   Marginal VFR   IFR   Intensive IFR   Very Intensive IFR
Visi :
Ceiling :
>= 8 km
>= 3000ft
5 to 8 km
1000 to 3000 ft
1500m to 5 km
500 to 1000 ft
800 to 1500m
200 to 500 ft
< 800m
< 200 ft
Symbols :   Thunderstorms  Fog  Heavy snow  Heavy precipitations  Wind > 20 kt






- Airport Elevation : 7316 ft
- IATA code : MEX


MMMX - Licenciado Benito Juarez International

CURRENT METAR :
  • 032056Z 07006KT 100V130 7SM SCT020 BKN200 26/06 A3027 NOSIG RMK SLP055 57020 909 8/208 HZY

EXPIRED METARs :
  • 031952Z 04009KT 6SM SCT020 BKN200 25/08 A3030 NOSIG RMK 8/108 HZY
  • 031914Z 00000KT 6SM SCT020 BKN200 24/08 A3042 NOSIG RMK 8/108 HZY

TAF COR TAF MMMX
Valid from the 03 at 18:00 until the 05 at 00:00 UTC


031759Z 0318/0424 12010KT P6SM SCT020 BKN200 TX26/0321Z TN15/0412Z
FM032200 12010KT P6SM BKN020CB OVC080
TEMPO 0322/0402 3SM TSRA
FM040500 04005KT P6SM SCT020 BKN070
FM042000 06010KT P6SM BKN020CB BKN080
TEMPO 0420/0424 2SM TSRA
MMFR FIR / North America



MET'MAP, your aeronautical weather chart ! - Copyright ORBIFLY December 2007 - Disclaimer

ORBIFLY MET'MAP TEAM :

Programming & Development : Alexandra Zaïnal
Original concept : Baudouin d'Aumeries
Technical & hardware support : Manuel Goepfert
Assistance : Marc-Olivier Méhu




SOURCES & CREDITS :

   NOAA       Earth
Advisory